LiveATC.Net - Listen to live air traffic control over the Internet!


ICAO: KJQF  IATA: JQF   Airport: Concord Regional Airport
City: Concord   State/Province: North Carolina
Country: United States   Continent: North America
KJQF METAR Weather: KJQF 121135Z AUTO 03003KT 10SM CLR 00/M04 A3061 RMK AO2
KJQF Flight Activity (FlightAware)
KJQF Airport Info   (iFlightPlanner)
KJQF VFR Sectional Chart   (iFlightPlanner) 
KJQF IFR Low Chart   (iFlightPlanner) 

KJQF Ground/Tower
Feed Status: UP   Listeners: 0
Listen in your browser - HTML5 player (in browser, HTML5)
Click here to listen with your own player (launches your MP3 player)
Archive Access: KJQF Ground/Tower
FacilityFrequency
Concord Ground121.850
Concord Tower134.650

NOTICE

Unauthorized use prohibited. See LiveATC.net Terms of Service


Airport/ARTCC Code
Frequency Search
(e.g., 124.400, 128.75)
Site-wide search
 


Browse Feeds
Top 50 Feeds
Coverage Map
Bad Weather Areas

LiveATC FAQ
Offer LiveATC feed
Contact LiveATC.net
Press Inquiries

LiveATC on iPhone
LiveATC on Android

Windows Phone
Windows 8/10

LiveATC Mobile
(Mobile browser)

ATC Audio Archives
Interesting Recordings

LiveATC Forums


Home Page
About LiveATC.net
Make a Donation
Terms of Use
Privacy Policy

Canadian Air Freqs

AIRMETs/SIGMETs

FAA Airport Status
Nat'l Airspace Status
Arrival Demand Charts


Server Software By:
Icecast.org
Liquidsoap